Time;durP1;ratioP1;P1;durP2;ratioP2;P2;SDS_P1;SDS_P2;PMS_P1;PMS_P2;Temp;Humidity;BMP_temperature;BMP_pressure;BME280_temperature;BME280_humidity;BME280_pressure;Samples;Min_cycle;Max_cycle;Signal;HPM_P1;HPM_P2
2021/07/28 00:01:27;;;;;;;10.15;8.75;;;;;;;16.19;100.00;100918.19;5268867;28;20029;-68
2021/07/28 00:03:59;;;;;;;10.45;8.10;;;;;;;16.21;100.00;100916.19;5284674;28;20035;-68
2021/07/28 00:06:30;;;;;;;11.70;8.43;;;;;;;16.16;100.00;100910.59;5284159;28;20535;-68
2021/07/28 00:09:01;;;;;;;8.80;7.90;;;;;;;16.13;100.00;100913.56;5284804;28;20028;-68
2021/07/28 00:11:32;;;;;;;11.52;8.82;;;;;;;16.10;100.00;100912.09;5282159;28;20465;-67
2021/07/28 00:14:04;;;;;;;11.05;8.38;;;;;;;16.08;100.00;100900.84;5285207;28;20385;-68
2021/07/28 00:16:35;;;;;;;9.43;7.57;;;;;;;16.07;100.00;100907.13;5283696;28;20036;-68
2021/07/28 00:19:28;;;;;;;9.85;8.18;;;;;;;16.02;100.00;100897.06;5283804;28;20037;-68
2021/07/28 00:24:49;;;;;;;9.05;7.75;;;;;;;15.95;100.00;100901.34;5285676;28;20044;-68
2021/07/28 00:27:21;;;;;;;9.88;8.73;;;;;;;15.95;100.00;100898.69;5284962;28;20516;-68
2021/07/28 00:29:52;;;;;;;9.48;8.55;;;;;;;15.94;100.00;100896.19;5284283;28;20019;-67
2021/07/28 00:32:23;;;;;;;9.80;8.50;;;;;;;15.89;100.00;100893.22;5284588;28;20038;-68
2021/07/28 00:34:54;;;;;;;10.13;9.00;;;;;;;15.89;100.00;100890.59;5282470;28;20325;-68
2021/07/28 00:37:26;;;;;;;9.55;8.10;;;;;;;15.89;100.00;100882.66;5283481;28;20032;-68
2021/07/28 00:39:57;;;;;;;9.73;7.82;;;;;;;15.88;100.00;100881.00;5286051;28;20031;-68
2021/07/28 00:42:28;;;;;;;9.75;7.93;;;;;;;15.87;100.00;100879.34;5282911;28;20383;-68
2021/07/28 00:45:00;;;;;;;8.85;7.63;;;;;;;15.86;100.00;100872.41;5286780;28;20028;-68
2021/07/28 00:47:31;;;;;;;8.70;7.65;;;;;;;15.84;100.00;100877.03;5266980;28;20028;-68
2021/07/28 00:50:04;;;;;;;9.48;7.97;;;;;;;15.77;100.00;100867.13;5285821;28;20503;-68
2021/07/28 00:52:39;;;;;;;9.13;7.65;;;;;;;15.75;100.00;100866.44;5281651;28;20434;-68
2021/07/28 00:55:11;;;;;;;11.57;8.13;;;;;;;15.77;100.00;100874.22;5281293;28;20035;-68
2021/07/28 00:57:42;;;;;;;8.95;7.95;;;;;;;15.77;100.00;100874.22;5285591;28;20024;-68
2021/07/28 01:00:14;;;;;;;12.20;8.10;;;;;;;15.74;100.00;100874.53;5283187;28;20032;-68
2021/07/28 01:02:45;;;;;;;11.65;8.35;;;;;;;15.71;100.00;100874.88;5282242;28;20988;-68
2021/07/28 01:05:16;;;;;;;8.63;7.33;;;;;;;15.72;100.00;100860.66;5285266;28;20035;-68
2021/07/28 01:07:48;;;;;;;10.52;8.15;;;;;;;15.69;100.00;100855.72;5284075;28;20271;-68
2021/07/28 01:10:19;;;;;;;11.18;8.30;;;;;;;15.69;100.00;100866.28;5282356;28;20036;-69
2021/07/28 01:12:53;;;;;;;9.82;7.93;;;;;;;15.66;100.00;100854.22;5285788;28;20390;-69
2021/07/28 01:18:14;;;;;;;8.45;7.53;;;;;;;15.68;100.00;100857.56;5284230;28;20035;-69
2021/07/28 01:20:46;;;;;;;10.10;8.15;;;;;;;15.64;100.00;100856.16;5282180;28;20119;-69
2021/07/28 01:23:23;;;;;;;9.82;8.20;;;;;;;15.66;100.00;100848.13;5285131;28;20031;-69
2021/07/28 01:25:58;;;;;;;11.38;7.78;;;;;;;15.63;100.00;100853.69;5284219;28;20016;-69
2021/07/28 01:28:32;;;;;;;8.48;7.63;;;;;;;15.61;100.00;100843.31;5283104;28;20016;-69
2021/07/28 01:31:12;;;;;;;11.30;8.02;;;;;;;15.61;100.00;100845.09;5284074;28;20541;-69
2021/07/28 01:33:46;;;;;;;9.30;7.97;;;;;;;15.57;100.00;100847.28;5282881;28;20028;-69
2021/07/28 01:36:20;;;;;;;9.00;7.75;;;;;;;15.59;100.00;100842.63;5284102;28;20104;-69
2021/07/28 01:38:51;;;;;;;10.38;7.88;;;;;;;15.55;100.00;100839.50;5283615;28;20406;-69
2021/07/28 01:41:22;;;;;;;12.98;8.80;;;;;;;15.55;100.00;100838.66;5280659;28;20039;-69
2021/07/28 01:43:54;;;;;;;10.68;9.00;;;;;;;15.53;100.00;100836.19;5284733;28;20046;-69
2021/07/28 01:46:25;;;;;;;11.23;8.65;;;;;;;15.52;100.00;100839.81;5284253;28;20021;-69
2021/07/28 01:48:56;;;;;;;12.70;8.95;;;;;;;15.53;100.00;100838.84;5284388;28;20501;-69
2021/07/28 01:51:28;;;;;;;9.85;8.35;;;;;;;15.50;100.00;100840.97;5281004;28;20039;-69
2021/07/28 01:53:59;;;;;;;11.07;8.65;;;;;;;15.50;100.00;100840.97;5284914;28;20524;-68
2021/07/28 01:56:30;;;;;;;10.30;8.80;;;;;;;15.48;100.00;100842.94;5285139;28;20485;-68
2021/07/28 01:59:02;;;;;;;12.88;9.60;;;;;;;15.48;100.00;100832.38;5288095;28;20477;-68
2021/07/28 02:01:33;;;;;;;10.35;8.98;;;;;;;15.46;100.00;100834.38;5268760;28;20028;-67
2021/07/28 02:04:04;;;;;;;10.95;9.73;;;;;;;15.48;100.00;100840.31;5288022;28;20491;-67
2021/07/28 02:06:36;;;;;;;12.55;9.40;;;;;;;15.47;100.00;100847.41;5286987;28;20059;-68
2021/07/28 02:09:07;;;;;;;11.63;9.75;;;;;;;15.51;100.00;100842.63;5284246;28;20028;-68
2021/07/28 02:11:38;;;;;;;11.95;9.98;;;;;;;15.48;100.00;100833.19;5285970;28;20050;-68
2021/07/28 02:14:09;;;;;;;12.05;9.75;;;;;;;15.45;100.00;100833.53;5286713;28;20025;-67
2021/07/28 02:16:41;;;;;;;12.40;9.93;;;;;;;15.48;100.00;100833.19;5286673;28;20035;-68
2021/07/28 02:19:12;;;;;;;11.20;9.40;;;;;;;15.48;100.00;100835.84;5285707;28;20031;-68
2021/07/28 02:21:43;;;;;;;15.57;10.48;;;;;;;15.48;100.00;100837.66;5284830;28;20025;-68
2021/07/28 02:24:14;;;;;;;17.88;12.50;;;;;;;15.47;100.00;100822.81;5288518;28;20024;-68
2021/07/28 02:26:46;;;;;;;15.57;12.57;;;;;;;15.48;100.00;100827.09;5287512;28;20076;-67
2021/07/28 02:29:17;;;;;;;15.10;11.93;;;;;;;15.45;100.00;100830.06;5285589;28;20045;-68
2021/07/28 02:31:48;;;;;;;17.58;12.38;;;;;;;15.42;100.00;100827.72;5286477;28;20076;-67
2021/07/28 02:34:19;;;;;;;15.55;13.38;;;;;;;15.46;100.00;100826.44;5285925;28;20033;-68
2021/07/28 02:36:51;;;;;;;15.45;13.43;;;;;;;15.33;100.00;100808.44;5286159;28;20035;-68
2021/07/28 02:39:23;;;;;;;16.65;14.07;;;;;;;15.42;100.00;100825.09;5287429;28;20125;-68
2021/07/28 02:41:54;;;;;;;16.13;12.82;;;;;;;15.42;100.00;100825.94;5285703;28;20119;-67
2021/07/28 02:44:25;;;;;;;13.50;12.00;;;;;;;15.39;100.00;100823.63;5285957;28;20038;-68
2021/07/28 02:46:56;;;;;;;17.90;13.13;;;;;;;15.39;100.00;100814.88;5287399;28;20120;-68
2021/07/28 02:49:28;;;;;;;17.13;12.63;;;;;;;15.37;100.00;100822.13;5285578;28;20086;-67
2021/07/28 02:51:59;;;;;;;14.95;13.00;;;;;;;15.36;100.00;100823.13;5284600;28;20305;-68
2021/07/28 02:54:31;;;;;;;13.82;12.43;;;;;;;15.36;100.00;100820.47;5287325;28;20028;-68
2021/07/28 02:57:02;;;;;;;14.80;12.23;;;;;;;15.33;100.00;100824.25;5285783;28;20040;-68
2021/07/28 02:59:33;;;;;;;15.85;11.85;;;;;;;15.36;100.00;100823.13;5284502;28;20529;-68
2021/07/28 03:02:05;;;;;;;13.70;11.13;;;;;;;15.38;100.00;100824.63;5286040;28;20496;-67
2021/07/28 03:04:36;;;;;;;12.85;11.13;;;;;;;15.40;100.00;100824.44;5285951;28;20032;-68
2021/07/28 03:07:07;;;;;;;13.40;11.57;;;;;;;15.41;100.00;100823.44;5285372;28;20027;-68
2021/07/28 03:09:38;;;;;;;13.27;10.83;;;;;;;15.44;100.00;100834.50;5284517;28;20089;-68
2021/07/28 03:12:10;;;;;;;13.40;10.38;;;;;;;15.47;100.00;100833.38;5287937;28;20277;-67
2021/07/28 03:14:41;;;;;;;13.13;10.80;;;;;;;15.45;100.00;100817.69;5288526;28;20073;-67
2021/07/28 03:17:12;;;;;;;11.77;9.95;;;;;;;15.55;100.00;100828.09;5284678;28;20027;-67
2021/07/28 03:19:44;;;;;;;13.73;10.57;;;;;;;15.54;100.00;100829.94;5284855;28;20611;-68
2021/07/28 03:22:15;;;;;;;17.33;10.68;;;;;;;15.57;100.00;100823.50;5283750;28;20489;-68
2021/07/28 03:24:46;;;;;;;14.43;10.63;;;;;;;15.59;100.00;100826.78;5287095;28;20517;-67
2021/07/28 03:27:17;;;;;;;12.88;10.60;;;;;;;15.62;100.00;100825.66;5286909;28;20024;-69
2021/07/28 03:29:49;;;;;;;13.05;10.75;;;;;;;15.62;100.00;100829.09;5287016;28;20025;-67
2021/07/28 03:32:20;;;;;;;12.63;10.02;;;;;;;15.65;100.00;100826.19;5283402;28;20036;-67
2021/07/28 03:34:51;;;;;;;20.33;12.13;;;;;;;15.65;100.00;100828.81;5286132;28;20028;-67
2021/07/28 03:37:22;;;;;;;11.90;10.27;;;;;;;15.70;100.00;100833.59;5284806;28;20048;-68
2021/07/28 03:40:01;;;;;;;16.75;12.40;;;;;;;15.71;100.00;100830.78;5285324;28;20119;-67
2021/07/28 03:42:32;;;;;;;13.43;11.10;;;;;;;15.72;100.00;100828.97;5286057;28;20033;-67
2021/07/28 03:45:04;;;;;;;14.50;12.10;;;;;;;15.75;100.00;100826.00;5286435;28;20020;-68
2021/07/28 03:47:35;;;;;;;16.27;11.50;;;;;;;15.79;100.00;100824.69;5285166;28;20252;-67
2021/07/28 03:50:07;;;;;;;13.93;12.00;;;;;;;15.79;100.00;100822.03;5284617;28;20110;-68
2021/07/28 03:52:38;;;;;;;14.20;11.75;;;;;;;15.82;100.00;100825.19;5285566;28;20028;-68
2021/07/28 03:55:10;;;;;;;16.27;11.77;;;;;;;15.88;100.00;100822.88;5276827;28;20119;-67
2021/07/28 03:57:42;;;;;;;14.88;12.60;;;;;;;15.86;100.00;100814.28;5284167;28;20126;-67
2021/07/28 04:00:13;;;;;;;13.98;12.48;;;;;;;15.94;100.00;100827.50;5274875;28;20024;-68
2021/07/28 04:02:45;;;;;;;13.80;12.07;;;;;;;15.93;100.00;100815.28;5282183;28;20033;-68
2021/07/28 04:05:17;;;;;;;13.90;12.50;;;;;;;15.97;100.00;100822.72;5283158;28;20028;-68
2021/07/28 04:07:56;;;;;;;14.85;12.88;;;;;;;16.02;100.00;100822.19;5284658;28;20047;-68
2021/07/28 04:10:28;;;;;;;18.55;13.70;;;;;;;15.99;100.00;100817.28;5282418;28;20370;-67
2021/07/28 04:12:59;;;;;;;14.57;12.48;;;;;;;16.02;100.00;100814.28;5286005;28;20023;-68
2021/07/28 04:15:30;;;;;;;17.02;12.63;;;;;;;16.05;100.00;100816.59;5285477;28;20182;-67
2021/07/28 04:18:02;;;;;;;15.38;12.50;;;;;;;16.09;100.00;100817.09;5283675;28;20036;-68
2021/07/28 04:20:33;;;;;;;17.77;13.05;;;;;;;16.11;100.00;100815.13;5281546;28;20461;-68
2021/07/28 04:23:04;;;;;;;15.73;12.75;;;;;;;16.13;100.00;100810.47;5287366;28;20133;-68
2021/07/28 04:25:35;;;;;;;20.15;13.38;;;;;;;16.15;100.00;100813.78;5284321;28;20036;-68
2021/07/28 04:28:07;;;;;;;17.58;13.32;;;;;;;16.18;100.00;100814.28;5282388;28;20639;-68
2021/07/28 04:30:38;;;;;;;15.18;12.60;;;;;;;16.19;100.00;100809.81;5269345;28;20025;-67
2021/07/28 04:33:09;;;;;;;17.30;13.18;;;;;;;16.22;100.00;100815.59;5273083;28;20036;-68
2021/07/28 04:35:40;;;;;;;15.95;13.68;;;;;;;16.24;100.00;100810.13;5281723;28;20028;-67
2021/07/28 04:38:12;;;;;;;17.42;13.63;;;;;;;16.26;100.00;100816.91;5283523;28;20461;-67
2021/07/28 04:40:43;;;;;;;16.70;14.30;;;;;;;16.28;100.00;100809.63;5283552;28;20565;-67
2021/07/28 04:43:14;;;;;;;17.70;15.20;;;;;;;16.32;100.00;100812.75;5284443;28;20068;-67
2021/07/28 04:45:46;;;;;;;20.60;15.15;;;;;;;16.34;100.00;100810.78;5283802;28;20452;-68
2021/07/28 04:48:17;;;;;;;18.67;15.68;;;;;;;16.36;100.00;100815.88;5284216;28;20396;-68
2021/07/28 04:50:48;;;;;;;19.17;14.93;;;;;;;16.40;100.00;100823.34;5285252;28;20028;-68
2021/07/28 04:53:19;;;;;;;21.07;14.60;;;;;;;16.44;100.00;100814.06;5282581;28;20022;-67
2021/07/28 04:55:52;;;;;;;15.85;14.18;;;;;;;16.45;100.00;100814.88;5283909;28;20366;-68
2021/07/28 04:58:24;;;;;;;20.63;16.48;;;;;;;16.47;100.00;100826.09;5284761;28;20026;-68
2021/07/28 05:00:56;;;;;;;20.85;14.70;;;;;;;16.48;100.00;100822.50;5279647;28;20058;-68
2021/07/28 05:03:28;;;;;;;19.88;15.00;;;;;;;16.53;100.00;100820.16;5283649;28;20033;-68
2021/07/28 05:05:59;;;;;;;16.20;14.40;;;;;;;16.55;100.00;100826.09;5283001;28;20575;-67
2021/07/28 05:08:30;;;;;;;17.70;14.75;;;;;;;16.56;100.00;100826.94;5283802;28;20019;-68
2021/07/28 05:11:01;;;;;;;18.23;15.10;;;;;;;16.57;100.00;100816.16;5284275;28;20039;-68
2021/07/28 05:13:33;;;;;;;18.20;15.07;;;;;;;16.59;100.00;100823.94;5277205;28;20479;-68
2021/07/28 05:16:04;;;;;;;18.05;15.13;;;;;;;16.58;100.00;100824.94;5282968;28;20400;-68
2021/07/28 05:18:35;;;;;;;17.73;14.27;;;;;;;16.61;100.00;100827.25;5283168;28;20537;-68
2021/07/28 05:21:07;;;;;;;18.70;14.40;;;;;;;16.63;100.00;100828.72;5284336;28;20032;-68
2021/07/28 05:23:38;;;;;;;18.10;14.18;;;;;;;16.64;100.00;100822.44;5282900;28;20282;-68
2021/07/28 05:26:09;;;;;;;16.80;13.80;;;;;;;16.69;100.00;100824.56;5284317;28;20024;-69
2021/07/28 05:28:40;;;;;;;16.02;13.60;;;;;;;16.70;100.00;100826.22;5278925;28;20021;-68
2021/07/28 05:31:13;;;;;;;15.43;13.68;;;;;;;16.69;100.00;100830.69;5282333;28;20082;-69
2021/07/28 05:33:45;;;;;;;17.80;13.55;;;;;;;16.72;100.00;100832.16;5286860;28;20424;-68
2021/07/28 05:36:16;;;;;;;17.13;13.60;;;;;;;16.73;100.00;100823.22;5291646;28;20031;-68
2021/07/28 05:38:47;;;;;;;15.32;12.43;;;;;;;16.82;100.00;100824.03;5286703;28;20047;-68
2021/07/28 05:41:19;;;;;;;15.20;13.63;;;;;;;16.85;100.00;100826.34;5287123;28;20460;-68
2021/07/28 05:43:50;;;;;;;17.58;13.93;;;;;;;16.97;100.00;100825.81;5289357;28;20413;-68
2021/07/28 05:46:21;;;;;;;14.48;12.57;;;;;;;17.02;100.00;100825.31;5283660;28;20034;-68
2021/07/28 05:48:52;;;;;;;15.80;13.30;;;;;;;17.02;100.00;100818.19;5280946;28;20036;-67
2021/07/28 05:51:24;;;;;;;14.10;12.70;;;;;;;17.05;100.00;100819.66;5284110;28;20035;-67
2021/07/28 05:53:55;;;;;;;17.58;13.55;;;;;;;17.13;100.00;100818.81;5286409;28;20036;-67
2021/07/28 05:56:28;;;;;;;14.15;10.63;;;;;;;17.21;100.00;100816.94;5288534;28;20397;-68
2021/07/28 05:58:59;;;;;;;13.73;11.32;;;;;;;17.25;100.00;100826.16;5288094;28;20028;-68
2021/07/28 06:01:30;;;;;;;15.25;12.07;;;;;;;17.27;100.00;100820.69;5284197;28;20024;-67
2021/07/28 06:04:02;;;;;;;16.20;11.63;;;;;;;17.30;100.00;100830.13;5284121;28;20032;-68
2021/07/28 06:06:33;;;;;;;12.68;11.00;;;;;;;17.31;100.00;100824.63;5285258;28;20531;-68
2021/07/28 06:09:04;;;;;;;14.48;10.88;;;;;;;17.26;100.00;100819.88;5282298;28;20031;-70
2021/07/28 06:11:36;;;;;;;16.13;11.60;;;;;;;17.32;100.00;100834.25;5285045;28;20032;-68
2021/07/28 06:14:07;;;;;;;15.55;12.10;;;;;;;17.35;100.00;100825.09;5285216;28;20403;-70
2021/07/28 06:16:39;;;;;;;15.07;11.05;;;;;;;17.38;100.00;100822.94;5284613;28;20448;-69
2021/07/28 06:19:10;;;;;;;13.47;10.70;;;;;;;17.39;100.00;100827.25;5283204;28;20457;-67
2021/07/28 06:21:41;;;;;;;13.07;10.60;;;;;;;17.44;100.00;100827.53;5283497;28;20021;-68
2021/07/28 06:24:13;;;;;;;14.17;11.57;;;;;;;17.45;100.00;100825.72;5286117;28;20106;-68
2021/07/28 06:26:44;;;;;;;13.43;11.27;;;;;;;17.47;100.00;100829.03;5285904;28;20024;-68
2021/07/28 06:29:16;;;;;;;11.07;9.45;;;;;;;17.51;100.00;100838.28;5286394;28;20158;-68
2021/07/28 06:31:47;;;;;;;13.43;11.00;;;;;;;17.49;100.00;100849.03;5278825;28;20024;-68
2021/07/28 06:34:18;;;;;;;13.33;9.27;;;;;;;17.57;100.00;100837.53;5285215;28;20035;-70
2021/07/28 06:36:50;;;;;;;13.00;9.37;;;;;;;17.60;100.00;100841.69;5284925;28;20409;-70
2021/07/28 06:39:21;;;;;;;10.85;9.65;;;;;;;17.62;100.00;100837.88;5286065;28;20421;-68
2021/07/28 06:41:52;;;;;;;12.20;9.75;;;;;;;17.62;100.00;100840.50;5284611;28;20032;-67
2021/07/28 06:44:24;;;;;;;11.73;9.18;;;;;;;17.69;100.00;100838.81;5284231;28;20404;-69
2021/07/28 06:46:55;;;;;;;10.60;8.70;;;;;;;17.66;100.00;100841.81;5280402;28;20030;-67
2021/07/28 06:49:26;;;;;;;13.43;7.95;;;;;;;17.64;100.00;100849.09;5284903;28;20519;-67
2021/07/28 06:51:58;;;;;;;12.80;7.03;;;;;;;17.62;100.00;100842.34;5286140;28;20429;-70
2021/07/28 06:54:29;;;;;;;10.33;6.07;;;;;;;17.59;100.00;100843.50;5287672;28;20025;-70
2021/07/28 06:57:00;;;;;;;9.53;6.20;;;;;;;17.65;100.00;100852.56;5279612;28;20491;-68
2021/07/28 06:59:32;;;;;;;8.97;5.90;;;;;;;17.68;100.00;100845.09;5286518;28;20059;-67
2021/07/28 07:02:03;;;;;;;10.18;6.35;;;;;;;17.77;100.00;100839.75;5285379;28;20488;-68
2021/07/28 07:04:34;;;;;;;8.83;6.40;;;;;;;17.84;100.00;100832.75;5285682;28;20025;-68
2021/07/28 07:07:06;;;;;;;12.20;6.30;;;;;;;17.93;100.00;100829.88;5281795;28;20392;-68
2021/07/28 07:09:37;;;;;;;9.57;5.90;;;;;;;18.07;100.00;100843.31;5283498;28;20504;-68
2021/07/28 07:12:08;;;;;;;10.32;6.43;;;;;;;18.12;100.00;100841.81;5284897;28;20029;-68
2021/07/28 07:14:40;;;;;;;8.53;5.23;;;;;;;18.27;100.00;100844.47;5283803;28;20025;-69
2021/07/28 07:17:18;;;;;;;8.13;5.45;;;;;;;18.30;100.00;100838.00;5283043;28;20355;-68
2021/07/28 07:19:49;;;;;;;8.35;5.38;;;;;;;18.39;100.00;100844.88;5283092;28;20066;-68
2021/07/28 07:22:20;;;;;;;8.67;5.27;;;;;;;18.39;100.00;100836.91;5283644;28;20119;-68
2021/07/28 07:24:52;;;;;;;7.70;5.33;;;;;;;18.33;100.00;100845.56;5282450;28;20028;-68
2021/07/28 07:27:23;;;;;;;8.75;5.32;;;;;;;18.44;100.00;100839.81;5284354;28;20028;-67
2021/07/28 07:29:55;;;;;;;6.23;4.63;;;;;;;18.43;100.00;100843.50;5283962;28;20604;-68
2021/07/28 07:32:29;;;;;;;6.95;5.15;;;;;;;18.57;100.00;100844.53;5286815;28;20030;-68
2021/07/28 07:35:01;;;;;;;10.25;4.53;;;;;;;18.56;100.00;100841.06;5283692;28;20040;-70
2021/07/28 07:37:33;;;;;;;7.05;4.18;;;;;;;18.75;100.00;100857.44;5284885;28;20059;-68
2021/07/28 07:40:05;;;;;;;7.47;4.15;;;;;;;18.66;99.01;100854.84;5280966;28;20068;-69
2021/07/28 07:42:36;;;;;;;9.25;4.40;;;;;;;18.71;98.29;100852.53;5286495;28;20017;-68
2021/07/28 07:45:08;;;;;;;7.70;4.23;;;;;;;18.81;97.14;100843.44;5282731;28;20235;-69
2021/07/28 07:47:39;;;;;;;7.83;4.70;;;;;;;18.93;97.94;100845.44;5280836;28;20543;-70
2021/07/28 07:50:11;;;;;;;7.57;3.73;;;;;;;18.99;98.78;100843.88;5280771;28;20036;-68
2021/07/28 07:52:42;;;;;;;9.03;3.90;;;;;;;19.12;97.15;100849.34;5284705;28;20621;-69
2021/07/28 07:55:13;;;;;;;6.63;3.90;;;;;;;19.15;97.41;100843.66;5280973;28;20042;-69
2021/07/28 07:57:45;;;;;;;7.97;4.63;;;;;;;19.27;96.09;100841.34;5281981;28;20032;-71
2021/07/28 08:00:16;;;;;;;7.57;3.80;;;;;;;19.30;95.45;100845.47;5284190;28;20534;-69
2021/07/28 08:02:48;;;;;;;8.67;3.83;;;;;;;19.47;95.40;100844.22;5277633;28;21221;-69
2021/07/28 08:05:19;;;;;;;8.57;4.37;;;;;;;19.59;94.97;100844.56;5278649;28;20037;-69
2021/07/28 08:07:50;;;;;;;11.13;4.30;;;;;;;19.62;94.82;100839.72;5280878;28;20032;-69
2021/07/28 08:10:22;;;;;;;8.00;3.80;;;;;;;19.71;94.59;100837.75;5275717;28;20496;-69
2021/07/28 08:12:53;;;;;;;7.33;4.07;;;;;;;19.57;93.37;100844.75;5279884;28;20025;-71
2021/07/28 08:15:25;;;;;;;5.20;3.30;;;;;;;19.39;92.97;100844.34;5273221;28;20052;-69
2021/07/28 08:17:56;;;;;;;4.93;3.27;;;;;;;19.35;92.46;100843.88;5272301;28;20024;-69
2021/07/28 08:20:28;;;;;;;7.30;3.53;;;;;;;19.48;93.49;100842.41;5278754;28;20039;-69
2021/07/28 08:22:59;;;;;;;6.77;3.50;;;;;;;19.72;92.68;100835.94;5285666;28;20119;-69
2021/07/28 08:25:31;;;;;;;5.73;3.30;;;;;;;19.82;92.86;100839.09;5282987;28;20028;-69
2021/07/28 08:28:02;;;;;;;6.87;3.17;;;;;;;19.82;91.63;100849.72;5288104;28;20402;-69
2021/07/28 08:30:34;;;;;;;7.63;3.03;;;;;;;19.83;90.91;100841.56;5280583;28;20033;-72
2021/07/28 08:33:05;;;;;;;6.10;3.13;;;;;;;19.84;91.77;100853.00;5285436;28;20062;-71
2021/07/28 08:35:36;;;;;;;8.07;3.40;;;;;;;19.87;91.19;100844.66;5282365;28;20043;-69
2021/07/28 08:38:07;;;;;;;5.80;3.30;;;;;;;19.85;92.10;100846.66;5282004;28;20044;-71
2021/07/28 08:40:46;;;;;;;7.43;3.50;;;;;;;19.90;92.82;100836.28;5284347;28;20060;-72
2021/07/28 08:43:20;;;;;;;7.15;3.70;;;;;;;20.14;92.99;100846.50;5267970;28;20030;-69
2021/07/28 08:45:53;;;;;;;8.98;3.60;;;;;;;20.15;89.83;100845.53;5280392;28;20542;-69
2021/07/28 08:48:25;;;;;;;6.57;3.38;;;;;;;20.26;89.00;100840.66;5280844;28;20063;-69
2021/07/28 08:50:58;;;;;;;8.53;3.33;;;;;;;20.44;88.29;100838.34;5277552;28;20634;-69
2021/07/28 08:53:30;;;;;;;7.20;2.80;;;;;;;20.65;88.80;100826.84;5266932;28;20093;-72
2021/07/28 08:56:02;;;;;;;9.47;3.30;;;;;;;20.84;86.33;100827.94;5265227;28;20617;-71
2021/07/28 08:58:34;;;;;;;10.18;3.20;;;;;;;20.84;84.74;100835.94;5267642;28;20036;-70
2021/07/28 09:01:05;;;;;;;6.83;2.70;;;;;;;20.94;85.46;100825.72;5271910;28;20032;-69
2021/07/28 09:03:36;;;;;;;8.77;3.00;;;;;;;21.11;86.42;100834.22;5267309;28;20115;-69
2021/07/28 09:06:08;;;;;;;5.33;2.60;;;;;;;21.04;85.29;100825.38;5266345;28;20474;-69
2021/07/28 09:08:40;;;;;;;6.23;2.70;;;;;;;21.07;85.67;100828.47;5269035;28;20116;-69
2021/07/28 09:11:11;;;;;;;8.77;3.07;;;;;;;21.30;85.67;100828.13;5268039;28;20498;-70
2021/07/28 09:13:43;;;;;;;3.13;2.30;;;;;;;21.42;84.44;100820.38;5266741;28;20056;-69
2021/07/28 09:16:18;;;;;;;6.07;2.40;;;;;;;21.53;81.66;100827.78;5268132;28;20031;-69
2021/07/28 09:18:51;;;;;;;5.22;2.17;;;;;;;21.78;81.67;100835.19;5264882;28;20036;-70
2021/07/28 09:21:27;;;;;;;5.00;2.58;;;;;;;22.03;81.77;100836.22;5269456;28;20024;-71
2021/07/28 09:24:14;;;;;;;4.45;2.22;;;;;;;22.16;78.96;100842.63;5267843;28;20036;-70
2021/07/28 09:26:53;;;;;;;4.72;2.35;;;;;;;22.45;78.87;100830.69;5253622;28;20029;-68
2021/07/28 09:29:28;;;;;;;4.05;2.20;;;;;;;22.51;76.87;100840.53;5268874;28;20024;-70
2021/07/28 09:32:06;;;;;;;6.07;2.22;;;;;;;22.24;75.20;100831.75;5267138;28;20048;-70
2021/07/28 09:34:38;;;;;;;7.28;2.40;;;;;;;22.30;76.99;100833.56;5268796;28;20272;-70
2021/07/28 09:37:13;;;;;;;4.97;2.20;;;;;;;22.06;74.86;100838.50;5259182;28;20036;-69
2021/07/28 09:39:45;;;;;;;4.88;2.10;;;;;;;22.21;75.79;100834.81;5265354;28;20097;-69
2021/07/28 09:42:19;;;;;;;8.70;2.10;;;;;;;22.31;75.99;100832.53;5268731;28;20027;-69
2021/07/28 09:44:56;;;;;;;6.72;3.03;;;;;;;22.07;75.55;100839.31;5265493;28;20024;-69
2021/07/28 09:47:38;;;;;;;3.90;2.08;;;;;;;21.88;76.71;100842.78;5264369;28;20130;-69
2021/07/28 09:50:10;;;;;;;3.90;2.30;;;;;;;21.67;76.15;100843.78;5251983;28;20465;-70
2021/07/28 09:52:41;;;;;;;7.57;2.27;;;;;;;21.55;77.06;100830.25;5267121;28;20078;-70
2021/07/28 09:55:23;;;;;;;4.23;2.00;;;;;;;21.38;77.85;100848.47;5276641;28;20074;-71
2021/07/28 09:57:56;;;;;;;7.50;2.58;;;;;;;21.57;78.28;100833.53;5282442;28;20033;-70
2021/07/28 10:00:29;;;;;;;4.40;1.90;;;;;;;21.72;77.24;100841.34;5270022;28;20044;-71
2021/07/28 10:03:02;;;;;;;2.90;1.60;;;;;;;22.02;76.66;100844.44;5281138;28;20047;-70
2021/07/28 10:05:36;;;;;;;6.60;2.13;;;;;;;22.23;75.38;100838.09;5277655;28;20043;-71
2021/07/28 10:08:11;;;;;;;6.80;2.30;;;;;;;22.59;76.22;100840.31;5277703;28;20110;-70
2021/07/28 10:10:43;;;;;;;5.13;2.03;;;;;;;22.24;72.83;100850.44;5281729;28;20573;-70
2021/07/28 10:13:16;;;;;;;4.47;1.77;;;;;;;22.25;72.63;100846.72;5280765;28;20033;-72
2021/07/28 10:15:48;;;;;;;9.80;2.13;;;;;;;22.02;72.48;100841.78;5278977;28;20036;-70
2021/07/28 10:18:20;;;;;;;7.70;2.27;;;;;;;22.16;74.70;100840.78;5276028;28;20108;-71
2021/07/28 10:20:52;;;;;;;8.90;2.50;;;;;;;22.29;71.13;100838.09;5283970;28;20042;-70
2021/07/28 10:23:24;;;;;;;7.27;2.20;;;;;;;22.56;70.06;100835.38;5287006;28;20040;-71
2021/07/28 10:26:02;;;;;;;4.38;1.77;;;;;;;22.58;70.42;100834.16;5283317;28;20023;-70
2021/07/28 10:28:36;;;;;;;4.40;2.20;;;;;;;22.68;70.33;100830.19;5287607;28;20427;-70
2021/07/28 10:31:16;;;;;;;9.65;1.98;;;;;;;22.90;71.04;100830.75;5284460;28;20032;-71
2021/07/28 10:33:52;;;;;;;4.68;2.00;;;;;;;22.93;70.69;100827.69;5284981;28;20030;-70
2021/07/28 10:36:53;;;;;;;6.05;2.42;;;;;;;22.96;70.92;100836.09;5277340;28;20051;-70
2021/07/28 10:39:47;;;;;;;5.78;2.00;;;;;;;22.78;70.44;100844.75;5284807;28;20041;-71
2021/07/28 10:42:33;;;;;;;4.85;1.70;;;;;;;22.89;70.05;100843.28;5285092;28;20067;-71
2021/07/28 10:45:20;;;;;;;6.43;2.30;;;;;;;22.72;69.17;100836.75;5282841;28;20035;-70
2021/07/28 10:47:53;;;;;;;4.07;1.90;;;;;;;22.89;69.50;100831.78;5285719;28;20028;-71
2021/07/28 10:50:42;;;;;;;;;;;;;;;23.22;70.35;100832.50;5249268;28;20311;-70
2021/07/28 10:53:47;;;;;;;4.68;2.15;;;;;;;23.23;68.22;100836.78;5273477;28;19939;-70
2021/07/28 10:56:18;;;;;;;3.63;1.80;;;;;;;22.98;68.96;100830.53;5276813;28;20032;-70
2021/07/28 10:58:49;;;;;;;7.77;2.20;;;;;;;22.99;70.08;100824.97;5285465;28;20024;-70
2021/07/28 11:01:41;;;;;;;3.80;2.27;;;;;;;;;;5286543;28;20036;-70
2021/07/28 11:04:23;;;;;;;9.45;2.40;;;;;;;23.23;68.68;100828.78;5274407;28;20136;-72
2021/07/28 11:06:55;;;;;;;6.50;2.15;;;;;;;23.31;66.82;100819.69;5284114;28;20028;-70
2021/07/28 11:09:28;;;;;;;10.70;2.70;;;;;;;23.40;64.94;100826.41;5281887;28;20538;-70
2021/07/28 11:11:59;;;;;;;5.70;1.65;;;;;;;23.41;64.30;100836.09;5283836;28;20028;-70
2021/07/28 11:14:31;;;;;;;8.87;2.07;;;;;;;23.43;65.50;100834.00;5284640;28;20047;-70
2021/07/28 11:17:02;;;;;;;8.10;1.90;;;;;;;23.35;66.22;100834.25;5281565;28;20032;-71
2021/07/28 11:19:46;;;;;;;4.97;1.90;;;;;;;23.53;67.07;100831.69;5283771;28;20077;-72
2021/07/28 11:22:24;;;;;;;5.38;1.90;;;;;;;23.29;65.49;100841.28;5284404;28;20058;-67
2021/07/28 11:24:57;;;;;;;4.47;1.85;;;;;;;23.05;66.07;100836.69;5284492;28;20059;-71
2021/07/28 11:27:28;;;;;;;;;;;;;;;23.41;65.88;100838.75;5286255;28;20509;-70
2021/07/28 11:30:12;;;;;;;3.87;1.83;;;;;;;23.52;66.19;100843.44;5284529;28;19912;-69
2021/07/28 11:32:44;;;;;;;8.02;2.28;;;;;;;23.84;65.95;100839.94;5284720;28;20040;-69
2021/07/28 11:35:15;;;;;;;5.37;1.70;;;;;;;23.70;64.75;100837.34;5280299;28;20410;-69
2021/07/28 11:37:46;;;;;;;4.73;2.07;;;;;;;23.72;64.71;100847.84;5277304;28;20060;-69
2021/07/28 11:40:17;;;;;;;5.17;1.83;;;;;;;23.71;64.76;100852.34;5281162;28;20061;-68
2021/07/28 11:42:49;;;;;;;4.70;1.83;;;;;;;23.71;64.54;100844.34;5281966;28;20545;-69
2021/07/28 11:45:35;;;;;;;5.60;2.00;;;;;;;23.72;65.15;100848.66;5269745;28;20068;-70